Observation data for Dimmitt on 12/09/2018      Previous  Date       Current Mesonet Observations  Soil Data  Daily Summary Page  Observations in Plain Language
KDMS 090600Z 27002KT M05/M06 A3028 RMK A01 T10461056  RH  093%=      5-min Rain = 0
KDMS 090605Z 26003KT M05/M05 A3028 RMK A01 T10461054  RH  094%=      5-min Rain = 0
KDMS 090610Z 26002KT M05/M06 A3028 RMK A01 T10471055  RH  094%=      5-min Rain = 0
KDMS 090615Z 26002KT M05/M06 A3028 RMK A01 T10481057  RH  094%=      5-min Rain = 0
KDMS 090620Z 26002KT M05/M06 A3028 RMK A01 T10501059  RH  093%=      5-min Rain = 0
KDMS 090625Z 26002KT M05/M06 A3028 RMK A01 T10491057  RH  094%=      5-min Rain = 0
KDMS 090630Z 27002KT M05/M05 A3028 RMK A01 T10451052  RH  095%=      5-min Rain = 0
KDMS 090635Z 27003KT M04/M05 A3028 RMK A01 T10441052  RH  095%=      5-min Rain = 0
KDMS 090640Z 28003KT M05/M06 A3028 RMK A01 T10471057  RH  093%=      5-min Rain = 0
KDMS 090645Z 28004KT M05/M06 A3028 RMK A01 T10521061  RH  093%=      5-min Rain = 0
KDMS 090650Z 29005KT M05/M06 A3028 RMK A01 T10541063  RH  094%=      5-min Rain = 0
KDMS 090655Z 29005KT M06/M07 A3028 RMK A01 T10571066  RH  093%=      5-min Rain = 0
KDMS 090700Z 29005KT M06/M07 A3028 RMK A01 T10591068  RH  094%=      5-min Rain = 0
KDMS 090705Z 30004KT M06/M07 A3028 RMK A01 T10611070  RH  094%=      5-min Rain = 0
KDMS 090710Z 31002KT M06/M07 A3028 RMK A01 T10611068  RH  095%=      5-min Rain = 0
KDMS 090715Z 31004KT M06/M07 A3028 RMK A01 T10621069  RH  095%=      5-min Rain = 0
KDMS 090720Z 31005KT M06/M07 A3028 RMK A01 T10621069  RH  095%=      5-min Rain = 0
KDMS 090725Z 31006KT M06/M07 A3027 RMK A01 T10621069  RH  095%=      5-min Rain = 0
KDMS 090730Z 31006KT M06/M07 A3027 RMK A01 T10641071  RH  095%=      5-min Rain = 0
KDMS 090735Z 31006KT M06/M07 A3027 RMK A01 T10631068  RH  096%=      5-min Rain = 0
KDMS 090740Z 32006KT M06/M07 A3027 RMK A01 T10621068  RH  096%=      5-min Rain = 0
KDMS 090745Z 32006KT M06/M07 A3027 RMK A01 T10621068  RH  096%=      5-min Rain = 0
KDMS 090750Z 32006KT M06/M07 A3027 RMK A01 T10611066  RH  096%=      5-min Rain = 0
KDMS 090755Z 31006KT M06/M07 A3027 RMK A01 T10601066  RH  096%=      5-min Rain = 0
KDMS 090800Z 31006KT M06/M07 A3027 RMK A01 T10611067  RH  096%=      5-min Rain = 0
KDMS 090805Z 31007KT M06/M07 A3027 RMK A01 T10641071  RH  095%=      5-min Rain = 0
KDMS 090810Z 31008KT M06/M07 A3027 RMK A01 T10631068  RH  096%=      5-min Rain = 0
KDMS 090815Z 31007KT M06/M07 A3027 RMK A01 T10611066  RH  096%=      5-min Rain = 0
KDMS 090820Z 32007KT M06/M07 A3028 RMK A01 T10601065  RH  096%=      5-min Rain = 0
KDMS 090825Z 32007KT M06/M07 A3028 RMK A01 T10601066  RH  096%=      5-min Rain = 0
KDMS 090830Z 32007KT M06/M07 A3028 RMK A01 T10611067  RH  096%=      5-min Rain = 0
KDMS 090835Z 31008KT M06/M07 A3028 RMK A01 T10611067  RH  096%=      5-min Rain = 0
KDMS 090840Z 31008KT M06/M07 A3028 RMK A01 T10611066  RH  096%=      5-min Rain = 0
KDMS 090845Z 31008KT M06/M07 A3028 RMK A01 T10611066  RH  096%=      5-min Rain = 0
KDMS 090850Z 31007KT M06/M07 A3028 RMK A01 T10601065  RH  096%=      5-min Rain = 0
KDMS 090855Z 31007KT M06/M07 A3028 RMK A01 T10611066  RH  096%=      5-min Rain = 0
KDMS 090900Z 31008KT M06/M07 A3028 RMK A01 T10611066  RH  096%=      5-min Rain = 0
KDMS 090905Z 31008KT M06/M07 A3028 RMK A01 T10611066  RH  097%=      5-min Rain = 0
KDMS 090910Z 32008KT M06/M07 A3028 RMK A01 T10611065  RH  097%=      5-min Rain = 0
KDMS 090915Z 31007KT M06/M07 A3028 RMK A01 T10611066  RH  097%=      5-min Rain = 0
KDMS 090920Z 31007KT M06/M07 A3028 RMK A01 T10621067  RH  096%=      5-min Rain = 0
KDMS 090925Z 31007KT M06/M07 A3028 RMK A01 T10621067  RH  096%=      5-min Rain = 0
KDMS 090930Z 31007KT M06/M07 A3028 RMK A01 T10641070  RH  096%=      5-min Rain = 0
KDMS 090935Z 31007KT M07/M07 A3028 RMK A01 T10651071  RH  096%=      5-min Rain = 0
KDMS 090940Z 32008KT M07/M07 A3028 RMK A01 T10651071  RH  096%=      5-min Rain = 0
KDMS 090945Z 32008KT M07/M07 A3028 RMK A01 T10651070  RH  096%=      5-min Rain = 0
KDMS 090950Z 31008KT M07/M07 A3028 RMK A01 T10651070  RH  096%=      5-min Rain = 0
KDMS 090955Z 32008KT M06/M07 A3028 RMK A01 T10641068  RH  097%=      5-min Rain = 0
KDMS 091000Z 32007KT M06/M07 A3028 RMK A01 T10631068  RH  097%=      5-min Rain = 0
KDMS 091005Z 32007KT M06/M07 A3028 RMK A01 T10641069  RH  096%=      5-min Rain = 0
KDMS 091010Z 32008KT M07/M07 A3028 RMK A01 T10651070  RH  096%=      5-min Rain = 0
KDMS 091015Z 32008KT M07/M07 A3028 RMK A01 T10651069  RH  096%=      5-min Rain = 0
KDMS 091020Z 32007KT M06/M07 A3028 RMK A01 T10631068  RH  097%=      5-min Rain = 0
KDMS 091025Z 32007KT M06/M07 A3027 RMK A01 T10631067  RH  097%=      5-min Rain = 0
KDMS 091030Z 33007KT M06/M07 A3027 RMK A01 T10641068  RH  096%=      5-min Rain = 0
KDMS 091035Z 32007KT M07/M07 A3028 RMK A01 T10651070  RH  096%=      5-min Rain = 0
KDMS 091040Z 32008KT M07/M07 A3028 RMK A01 T10661072  RH  096%=      5-min Rain = 0
KDMS 091045Z 31007KT M07/M07 A3028 RMK A01 T10661071  RH  096%=      5-min Rain = 0
KDMS 091050Z 31007KT M07/M07 A3028 RMK A01 T10661071  RH  096%=      5-min Rain = 0
KDMS 091055Z 31007KT M07/M07 A3028 RMK A01 T10651069  RH  096%=      5-min Rain = 0
KDMS 091100Z 32007KT M07/M07 A3028 RMK A01 T10651071  RH  096%=      5-min Rain = 0
KDMS 091105Z 32007KT M07/M07 A3028 RMK A01 T10661071  RH  096%=      5-min Rain = 0
KDMS 091110Z 32007KT M07/M07 A3028 RMK A01 T10661071  RH  096%=      5-min Rain = 0
KDMS 091115Z 32007KT M07/M07 A3028 RMK A01 T10651069  RH  097%=      5-min Rain = 0
KDMS 091120Z 32007KT M06/M07 A3028 RMK A01 T10641069  RH  097%=      5-min Rain = 0
KDMS 091125Z 32007KT M07/M07 A3027 RMK A01 T10651069  RH  097%=      5-min Rain = 0
KDMS 091130Z 32006KT M07/M07 A3027 RMK A01 T10661071  RH  096%=      5-min Rain = 0
KDMS 091135Z 32007KT M07/M07 A3027 RMK A01 T10671072  RH  096%=      5-min Rain = 0
KDMS 091140Z 32007KT M07/M07 A3027 RMK A01 T10671071  RH  096%=      5-min Rain = 0
KDMS 091145Z 32007KT M07/M07 A3028 RMK A01 T10661072  RH  096%=      5-min Rain = 0
KDMS 091150Z 32007KT M07/M07 A3028 RMK A01 T10661070  RH  097%=      5-min Rain = 0
KDMS 091155Z 32007KT M07/M07 A3028 RMK A01 T10651070  RH  097%=      5-min Rain = 0
KDMS 091200Z 32007KT M07/M07 A3028 RMK A01 T10651069  RH  097%=      5-min Rain = 0
KDMS 091205Z 31007KT M07/M07 A3028 RMK A01 T10651070  RH  096%=      5-min Rain = 0
KDMS 091210Z 31006KT M07/M07 A3028 RMK A01 T10651070  RH  096%=      5-min Rain = 0
KDMS 091215Z 31006KT M07/M07 A3028 RMK A01 T10661071  RH  096%=      5-min Rain = 0
KDMS 091220Z 31006KT M07/M07 A3029 RMK A01 T10671073  RH  096%=      5-min Rain = 0
KDMS 091225Z 31006KT M07/M08 A3029 RMK A01 T10691075  RH  095%=      5-min Rain = 0
KDMS 091230Z 30004KT M07/M08 A3029 RMK A01 T10701077  RH  095%=      5-min Rain = 0
KDMS 091235Z 31005KT M07/M08 A3029 RMK A01 T10711077  RH  095%=      5-min Rain = 0
KDMS 091240Z 32007KT M07/M08 A3029 RMK A01 T10701076  RH  096%=      5-min Rain = 0
KDMS 091245Z 32007KT M07/M07 A3029 RMK A01 T10691074  RH  096%=      5-min Rain = 0
KDMS 091250Z 32007KT M07/M07 A3029 RMK A01 T10681074  RH  096%=      5-min Rain = 0
KDMS 091255Z 32007KT M07/M07 A303 RMK A01 T10681074  RH  095%=      5-min Rain = 0
KDMS 091300Z 32007KT M07/M07 A303 RMK A01 T10681074  RH  095%=      5-min Rain = 0
KDMS 091305Z 32007KT M07/M07 A303 RMK A01 T10671073  RH  096%=      5-min Rain = 0
KDMS 091310Z 32007KT M07/M07 A303 RMK A01 T10661072  RH  095%=      5-min Rain = 0
KDMS 091315Z 32007KT M07/M07 A3031 RMK A01 T10661073  RH  095%=      5-min Rain = 0
KDMS 091320Z 32007KT M07/M07 A3031 RMK A01 T10661073  RH  095%=      5-min Rain = 0
KDMS 091325Z 32006KT M07/M07 A3031 RMK A01 T10661073  RH  095%=      5-min Rain = 0
KDMS 091330Z 32007KT M07/M08 A3031 RMK A01 T10671075  RH  094%=      5-min Rain = 0
KDMS 091335Z 32007KT M07/M08 A3032 RMK A01 T10681075  RH  094%=      5-min Rain = 0
KDMS 091340Z 32007KT M07/M07 A3032 RMK A01 T10671074  RH  095%=      5-min Rain = 0
KDMS 091345Z 32007KT M07/M07 A3032 RMK A01 T10651072  RH  095%=      5-min Rain = 0
KDMS 091350Z 32007KT M07/M07 A3032 RMK A01 T10661073  RH  094%=      5-min Rain = 0
KDMS 091355Z 31007KT M07/M07 A3033 RMK A01 T10661073  RH  094%=      5-min Rain = 0
KDMS 091400Z 30007KT M07/M08 A3033 RMK A01 T10671075  RH  094%=      5-min Rain = 0
KDMS 091405Z 30007KT M07/M08 A3033 RMK A01 T10671076  RH  094%=      5-min Rain = 0
KDMS 091410Z 31007KT M07/M07 A3033 RMK A01 T10651073  RH  094%=      5-min Rain = 0
KDMS 091415Z 31007KT M06/M07 A3033 RMK A01 T10631071  RH  094%=      5-min Rain = 0
KDMS 091420Z 31007KT M06/M07 A3034 RMK A01 T10601068  RH  094%=      5-min Rain = 0
KDMS 091425Z 31006KT M06/M07 A3033 RMK A01 T10581066  RH  094%=      5-min Rain = 0
KDMS 091430Z 31005KT M06/M06 A3033 RMK A01 T10561064  RH  094%=      5-min Rain = 0
KDMS 091435Z 31005KT M05/M06 A3034 RMK A01 T10541062  RH  094%=      5-min Rain = 0
KDMS 091440Z 31005KT M05/M06 A3033 RMK A01 T10511059  RH  094%=      5-min Rain = 0
KDMS 091445Z 31005KT M05/M06 A3034 RMK A01 T10471055  RH  094%=      5-min Rain = 0
KDMS 091450Z 32006KT M04/M05 A3034 RMK A01 T10441052  RH  094%=      5-min Rain = 0
KDMS 091455Z 32005KT M04/M05 A3034 RMK A01 T10401049  RH  094%=      5-min Rain = 0
KDMS 091500Z 32005KT M04/M05 A3034 RMK A01 T10371047  RH  093%=      5-min Rain = 0
KDMS 091505Z 31006KT M03/M04 A3034 RMK A01 T10321043  RH  093%=      5-min Rain = 0
KDMS 091510Z 30006KT M03/M04 A3035 RMK A01 T10321044  RH  092%=      5-min Rain = 0
KDMS 091515Z 30006KT M03/M04 A3035 RMK A01 T10311042  RH  092%=      5-min Rain = 0
KDMS 091520Z 31006KT M03/M04 A3035 RMK A01 T10301043  RH  092%=      5-min Rain = 0
KDMS 091525Z 31006KT M03/M04 A3035 RMK A01 T10281040  RH  092%=      5-min Rain = 0
KDMS 091530Z 31006KT M03/M04 A3035 RMK A01 T10251038  RH  092%=      5-min Rain = 0
KDMS 091535Z 31006KT M02/M04 A3036 RMK A01 T10221035  RH  091%=      5-min Rain = 0
KDMS 091540Z 31005KT M02/M03 A3036 RMK A01 T10201034  RH  090%=      5-min Rain = 0
KDMS 091545Z 31005KT M02/M03 A3036 RMK A01 T10171033  RH  090%=      5-min Rain = 0
KDMS 091550Z 32004KT M01/M03 A3036 RMK A01 T10121028  RH  090%=      5-min Rain = 0
KDMS 091555Z 32004KT M01/M03 A3036 RMK A01 T10101027  RH  089%=      5-min Rain = 0
KDMS 091600Z 31005KT M01/M03 A3036 RMK A01 T10081027  RH  088%=      5-min Rain = 0
KDMS 091605Z 32004KT M00/M03 A3036 RMK A01 T10041026  RH  086%=      5-min Rain = 0
KDMS 091610Z 31004KT M00/M03 A3037 RMK A01 T10021026  RH  085%=      5-min Rain = 0
KDMS 091615Z 32004KT 00/M03 A3037 RMK A01 T00011027  RH  082%=      5-min Rain = 0
KDMS 091620Z 33004KT 00/M03 A3037 RMK A01 T00041026  RH  081%=      5-min Rain = 0
KDMS 091625Z 32004KT 01/M02 A3036 RMK A01 T00071024  RH  080%=      5-min Rain = 0
KDMS 091630Z 32003KT 01/M02 A3037 RMK A01 T00111020  RH  080%=      5-min Rain = 0
KDMS 091635Z 32003KT 01/M02 A3037 RMK A01 T00141022  RH  078%=      5-min Rain = 0
KDMS 091640Z 33003KT 02/M02 A3037 RMK A01 T00161022  RH  076%=      5-min Rain = 0
KDMS 091645Z 34003KT 02/M02 A3037 RMK A01 T00201024  RH  073%=      5-min Rain = 0
KDMS 091650Z 35004KT 02/M03 A3036 RMK A01 T00221026  RH  071%=      5-min Rain = 0
KDMS 091655Z 35004KT 03/M03 A3036 RMK A01 T00251026  RH  070%=      5-min Rain = 0
KDMS 091700Z 36004KT 03/M02 A3036 RMK A01 T00291024  RH  069%=      5-min Rain = 0
KDMS 091705Z 35004KT 03/M02 A3036 RMK A01 T00311023  RH  068%=      5-min Rain = 0
KDMS 091710Z 35004KT 03/M02 A3036 RMK A01 T00331022  RH  068%=      5-min Rain = 0
KDMS 091715Z 35005KT 04/M02 A3036 RMK A01 T00371021  RH  066%=      5-min Rain = 0
KDMS 091720Z 34006KT 04/M02 A3036 RMK A01 T00391023  RH  064%=      5-min Rain = 0
KDMS 091725Z 35004KT 04/M02 A3036 RMK A01 T00401024  RH  063%=      5-min Rain = 0
KDMS 091730Z 35004KT 05/M02 A3036 RMK A01 T00451023  RH  062%=      5-min Rain = 0
KDMS 091735Z 02004KT 05/M03 A3036 RMK A01 T00481027  RH  059%=      5-min Rain = 0
KDMS 091740Z 02005KT 05/M03 A3036 RMK A01 T00481028  RH  058%=      5-min Rain = 0
KDMS 091745Z 02005KT 05/M03 A3036 RMK A01 T00461033  RH  057%=      5-min Rain = 0
KDMS 091750Z 02005KT 05/M03 A3036 RMK A01 T00481031  RH  057%=      5-min Rain = 0
KDMS 091755Z 00005KT 05/M03 A3036 RMK A01 T00511029  RH  056%=      5-min Rain = 0
KDMS 091800Z 02005KT 06/M03 A3036 RMK A01 T00551029  RH  055%=      5-min Rain = 0
KDMS 091805Z 04006KT 06/M03 A3035 RMK A01 T00551031  RH  054%=      5-min Rain = 0
KDMS 091810Z 05007KT 06/M03 A3035 RMK A01 T00551031  RH  054%=      5-min Rain = 0
KDMS 091815Z 04007KT 05/M03 A3035 RMK A01 T00541031  RH  054%=      5-min Rain = 0
KDMS 091820Z 03004KT 05/M03 A3035 RMK A01 T00541031  RH  055%=      5-min Rain = 0
KDMS 091825Z 03004KT 05/M03 A3034 RMK A01 T00541031  RH  055%=      5-min Rain = 0
KDMS 091830Z 02003KT 06/M03 A3034 RMK A01 T00551031  RH  054%=      5-min Rain = 0
KDMS 091835Z 02001KT 06/M03 A3034 RMK A01 T00571029  RH  054%=      5-min Rain = 0
KDMS 091840Z 06003KT 06/M03 A3033 RMK A01 T00601029  RH  053%=      5-min Rain = 0
KDMS 091845Z 05003KT 06/M03 A3033 RMK A01 T00591032  RH  052%=      5-min Rain = 0
KDMS 091850Z 01004KT 06/M03 A3033 RMK A01 T00621029  RH  052%=      5-min Rain = 0
KDMS 091855Z 01003KT 06/M03 A3033 RMK A01 T00621034  RH  050%=      5-min Rain = 0
KDMS 091900Z 06002KT 07/M03 A3033 RMK A01 T00651031  RH  051%=      5-min Rain = 0
KDMS 091905Z 01003KT 07/M03 A3033 RMK A01 T00671032  RH  050%=      5-min Rain = 0
KDMS 091910Z 33002KT 07/M03 A3032 RMK A01 T00681032  RH  049%=      5-min Rain = 0
KDMS 091915Z 31002KT 07/M03 A3032 RMK A01 T00731030  RH  048%=      5-min Rain = 0
KDMS 091920Z 33006KT 07/M04 A3032 RMK A01 T00721035  RH  047%=      5-min Rain = 0
KDMS 091925Z 30003KT 07/M03 A3032 RMK A01 T00721034  RH  047%=      5-min Rain = 0
KDMS 091930Z 31003KT 07/M04 A3032 RMK A01 T00741035  RH  046%=      5-min Rain = 0
KDMS 091935Z 33004KT 07/M04 A3032 RMK A01 T00741035  RH  046%=      5-min Rain = 0
KDMS 091940Z 32005KT 07/M04 A3032 RMK A01 T00741036  RH  046%=      5-min Rain = 0
KDMS 091945Z 34006G11KT 08/M03 A3031 RMK A01 T00771034  RH  045%=      5-min Rain = 0
KDMS 091950Z 35005KT 08/M04 A3032 RMK A01 T00791040  RH  043%=      5-min Rain = 0
KDMS 091955Z 34005KT 08/M04 A3031 RMK A01 T00761039  RH  044%=      5-min Rain = 0
KDMS 092000Z 32005KT 08/M04 A3031 RMK A01 T00751040  RH  044%=      5-min Rain = 0
KDMS 092005Z 31002KT 08/M04 A3031 RMK A01 T00761040  RH  044%=      5-min Rain = 0
KDMS 092010Z 34003KT 08/M04 A3031 RMK A01 T00781037  RH  044%=      5-min Rain = 0
KDMS 092015Z 35004KT 08/M03 A3031 RMK A01 T00791034  RH  045%=      5-min Rain = 0
KDMS 092020Z 02003KT 08/M03 A3031 RMK A01 T00781033  RH  045%=      5-min Rain = 0
KDMS 092025Z 33005KT 08/M03 A3031 RMK A01 T00781034  RH  045%=      5-min Rain = 0
KDMS 092030Z 33005KT 08/M04 A303 RMK A01 T00791036  RH  044%=      5-min Rain = 0
KDMS 092035Z 32005KT 08/M04 A303 RMK A01 T00801038  RH  043%=      5-min Rain = 0
KDMS 092040Z 29003KT 08/M04 A303 RMK A01 T00801040  RH  043%=      5-min Rain = 0
KDMS 092045Z 32005KT 08/M04 A3031 RMK A01 T00811041  RH  042%=      5-min Rain = 0
KDMS 092050Z 33005KT 08/M04 A3031 RMK A01 T00841041  RH  041%=      5-min Rain = 0
KDMS 092055Z 33005KT 08/M04 A303 RMK A01 T00841044  RH  040%=      5-min Rain = 0
KDMS 092100Z 31005KT 08/M05 A303 RMK A01 T00831048  RH  039%=      5-min Rain = 0
KDMS 092105Z 31004KT 08/M05 A303 RMK A01 T00811047  RH  040%=      5-min Rain = 0
KDMS 092110Z 29004KT 08/M04 A303 RMK A01 T00811043  RH  041%=      5-min Rain = 0
KDMS 092115Z 33006KT 08/M05 A303 RMK A01 T00831046  RH  040%=      5-min Rain = 0
KDMS 092120Z 33004KT 09/M05 A303 RMK A01 T00851047  RH  039%=      5-min Rain = 0
KDMS 092125Z 33003KT 09/M05 A303 RMK A01 T00871047  RH  039%=      5-min Rain = 0
KDMS 092130Z 34005KT 09/M05 A303 RMK A01 T00851045  RH  040%=      5-min Rain = 0
KDMS 092135Z 31003KT 08/M05 A303 RMK A01 T00841046  RH  040%=      5-min Rain = 0
KDMS 092140Z 32006KT 08/M05 A3031 RMK A01 T00841048  RH  039%=      5-min Rain = 0
KDMS 092145Z 33005KT 09/M05 A3031 RMK A01 T00851048  RH  039%=      5-min Rain = 0
KDMS 092150Z 31003KT 09/M05 A3031 RMK A01 T00851049  RH  038%=      5-min Rain = 0
KDMS 092155Z 35006KT 09/M05 A303 RMK A01 T00861047  RH  039%=      5-min Rain = 0
KDMS 092200Z 34005KT 08/M05 A303 RMK A01 T00841051  RH  038%=      5-min Rain = 0
KDMS 092205Z 33005KT 09/M05 A3031 RMK A01 T00851051  RH  038%=      5-min Rain = 0
KDMS 092210Z 34005KT 08/M05 A3031 RMK A01 T00831052  RH  038%=      5-min Rain = 0
KDMS 092215Z 35004KT 08/M05 A3031 RMK A01 T00841049  RH  039%=      5-min Rain = 0
KDMS 092220Z 36007KT 08/M05 A3031 RMK A01 T00831050  RH  038%=      5-min Rain = 0
KDMS 092225Z 35004KT 08/M05 A3031 RMK A01 T00841049  RH  039%=      5-min Rain = 0
KDMS 092230Z 00005KT 08/M05 A3031 RMK A01 T00821045  RH  040%=      5-min Rain = 0
KDMS 092235Z 35003KT 08/M05 A303 RMK A01 T00811046  RH  040%=      5-min Rain = 0
KDMS 092240Z 36003KT 08/M04 A303 RMK A01 T00801041  RH  042%=      5-min Rain = 0
KDMS 092245Z 35004KT 08/M05 A303 RMK A01 T00801049  RH  040%=      5-min Rain = 0
KDMS 092250Z 34002KT 08/M05 A303 RMK A01 T00791052  RH  039%=      5-min Rain = 0
KDMS 092255Z 00002KT 08/M05 A303 RMK A01 T00791045  RH  041%=      5-min Rain = 0
KDMS 092300Z 36003KT 08/M04 A303 RMK A01 T00751041  RH  044%=      5-min Rain = 0
KDMS 092305Z 01003KT 07/M04 A303 RMK A01 T00711041  RH  045%=      5-min Rain = 0
KDMS 092310Z 00003KT 07/M04 A3031 RMK A01 T00671044  RH  045%=      5-min Rain = 0
KDMS 092315Z 36003KT 07/M05 A3031 RMK A01 T00671048  RH  044%=      5-min Rain = 0
KDMS 092320Z 35003KT 07/M05 A3031 RMK A01 T00651047  RH  045%=      5-min Rain = 0
KDMS 092325Z 34002KT 07/M05 A3031 RMK A01 T00651049  RH  044%=      5-min Rain = 0
KDMS 092330Z 35002KT 07/M05 A3031 RMK A01 T00651054  RH  042%=      5-min Rain = 0
KDMS 092335Z 35002KT 06/M05 A3031 RMK A01 T00641053  RH  043%=      5-min Rain = 0
KDMS 092340Z 34002KT 06/M05 A3031 RMK A01 T00611053  RH  044%=      5-min Rain = 0
KDMS 092345Z 34003KT 05/M05 A3031 RMK A01 T00541053  RH  046%=      5-min Rain = 0
KDMS 092350Z 35003KT 06/M05 A3031 RMK A01 T00551052  RH  046%=      5-min Rain = 0
KDMS 092355Z 00003KT 06/M05 A3031 RMK A01 T00551053  RH  046%=      5-min Rain = 0
KDMS 100000Z 01003KT 06/M05 A3031 RMK A01 T00561053  RH  046%=      5-min Rain = 0
KDMS 100005Z 01003KT 05/M05 A3032 RMK A01 T00481053  RH  048%=      5-min Rain = 0
KDMS 100010Z 01004KT 05/M06 A3032 RMK A01 T00451055  RH  048%=      5-min Rain = 0
KDMS 100015Z 01004KT 05/M06 A3033 RMK A01 T00451056  RH  048%=      5-min Rain = 0
KDMS 100020Z 02006KT 04/M06 A3033 RMK A01 T00381057  RH  050%=      5-min Rain = 0
KDMS 100025Z 02005KT 02/M06 A3033 RMK A01 T00231058  RH  055%=      5-min Rain = 0
KDMS 100030Z 03005KT 02/M06 A3033 RMK A01 T00231056  RH  056%=      5-min Rain = 0
KDMS 100035Z 02006KT 03/M06 A3034 RMK A01 T00271058  RH  054%=      5-min Rain = 0
KDMS 100040Z 02006KT 02/M06 A3034 RMK A01 T00171059  RH  057%=      5-min Rain = 0
KDMS 100045Z 02007KT 01/M06 A3034 RMK A01 T00131059  RH  059%=      5-min Rain = 0
KDMS 100050Z 01008KT 00/M06 A3034 RMK A01 T00041061  RH  062%=      5-min Rain = 0
KDMS 100055Z 01008KT M00/M06 A3034 RMK A01 T10021062  RH  064%=      5-min Rain = 0
KDMS 100100Z 01008KT M01/M07 A3034 RMK A01 T10051066  RH  064%=      5-min Rain = 0
KDMS 100105Z 02009KT M01/M07 A3034 RMK A01 T10131067  RH  067%=      5-min Rain = 0
KDMS 100110Z 02008KT M02/M07 A3034 RMK A01 T10151068  RH  067%=      5-min Rain = 0
KDMS 100115Z 02008KT M01/M07 A3034 RMK A01 T10141069  RH  066%=      5-min Rain = 0
KDMS 100120Z 02008KT M01/M07 A3034 RMK A01 T10101071  RH  064%=      5-min Rain = 0
KDMS 100125Z 02007KT M01/M07 A3035 RMK A01 T10081072  RH  062%=      5-min Rain = 0
KDMS 100130Z 02007KT M00/M07 A3035 RMK A01 T10041073  RH  060%=      5-min Rain = 0
KDMS 100135Z 02007KT M00/M07 A3035 RMK A01 T10021074  RH  058%=      5-min Rain = 0
KDMS 100140Z 04005KT M01/M07 A3035 RMK A01 T10101074  RH  062%=      5-min Rain = 0
KDMS 100145Z 06003KT M02/M07 A3035 RMK A01 T10201073  RH  067%=      5-min Rain = 0
KDMS 100150Z 07002KT M02/M07 A3035 RMK A01 T10221073  RH  068%=      5-min Rain = 0
KDMS 100155Z 07000KT M03/M07 A3035 RMK A01 T10261073  RH  070%=      5-min Rain = 0
KDMS 100200Z 16000KT M03/M07 A3036 RMK A01 T10271070  RH  072%=      5-min Rain = 0
KDMS 100205Z 18001KT M02/M07 A3036 RMK A01 T10171070  RH  067%=      5-min Rain = 0
KDMS 100210Z 19002KT M01/M06 A3036 RMK A01 T10121064  RH  068%=      5-min Rain = 0
KDMS 100215Z 19001KT M01/M06 A3035 RMK A01 T10101061  RH  068%=      5-min Rain = 0
KDMS 100220Z 20001KT M01/M07 A3035 RMK A01 T10091068  RH  064%=      5-min Rain = 0
KDMS 100225Z 21000KT M01/M07 A3036 RMK A01 T10091069  RH  064%=      5-min Rain = 0
KDMS 100230Z 00000KT M01/M07 A3036 RMK A01 T10101072  RH  063%=      5-min Rain = 0
KDMS 100235Z 00000KT M01/M07 A3036 RMK A01 T10071071  RH  062%=      5-min Rain = 0
KDMS 100240Z 23001KT M01/M07 A3036 RMK A01 T10061069  RH  062%=      5-min Rain = 0
KDMS 100245Z 24002KT M01/M07 A3036 RMK A01 T10071070  RH  062%=      5-min Rain = 0
KDMS 100250Z 23002KT M02/M07 A3036 RMK A01 T10151070  RH  066%=      5-min Rain = 0
KDMS 100255Z 23002KT M02/M07 A3036 RMK A01 T10211073  RH  067%=      5-min Rain = 0
KDMS 100300Z 23002KT M02/M07 A3036 RMK A01 T10191073  RH  067%=      5-min Rain = 0
KDMS 100305Z 23002KT M02/M07 A3036 RMK A01 T10181071  RH  067%=      5-min Rain = 0
KDMS 100310Z 25002KT M02/M07 A3036 RMK A01 T10171073  RH  065%=      5-min Rain = 0
KDMS 100315Z 25002KT M02/M07 A3036 RMK A01 T10151072  RH  065%=      5-min Rain = 0
KDMS 100320Z 24001KT M01/M07 A3036 RMK A01 T10111073  RH  063%=      5-min Rain = 0
KDMS 100325Z 24002KT M02/M07 A3036 RMK A01 T10171072  RH  066%=      5-min Rain = 0
KDMS 100330Z 23002KT M02/M07 A3036 RMK A01 T10191072  RH  067%=      5-min Rain = 0
KDMS 100335Z 23004KT M02/M07 A3036 RMK A01 T10191072  RH  067%=      5-min Rain = 0
KDMS 100340Z 23004KT M02/M07 A3036 RMK A01 T10221065  RH  073%=      5-min Rain = 0
KDMS 100345Z 22004KT M02/M07 A3036 RMK A01 T10231066  RH  072%=      5-min Rain = 0
KDMS 100350Z 23005KT M02/M07 A3036 RMK A01 T10211073  RH  068%=      5-min Rain = 0
KDMS 100355Z 24004KT M02/M07 A3036 RMK A01 T10201074  RH  067%=      5-min Rain = 0
KDMS 100400Z 24004KT M02/M07 A3036 RMK A01 T10181073  RH  066%=      5-min Rain = 0
KDMS 100405Z 23003KT M01/M07 A3037 RMK A01 T10131071  RH  065%=      5-min Rain = 0
KDMS 100410Z 23004KT M01/M07 A3037 RMK A01 T10121069  RH  065%=      5-min Rain = 0
KDMS 100415Z 24004KT M01/M07 A3037 RMK A01 T10121068  RH  066%=      5-min Rain = 0
KDMS 100420Z 25005KT M01/M07 A3037 RMK A01 T10141068  RH  067%=      5-min Rain = 0
KDMS 100425Z 24004KT M02/M07 A3037 RMK A01 T10151067  RH  068%=      5-min Rain = 0
KDMS 100430Z 24004KT M02/M07 A3037 RMK A01 T10171066  RH  070%=      5-min Rain = 0
KDMS 100435Z 24005KT M02/M07 A3037 RMK A01 T10221069  RH  070%=      5-min Rain = 0
KDMS 100440Z 24005KT M03/M07 A3037 RMK A01 T10301072  RH  073%=      5-min Rain = 0
KDMS 100445Z 26006KT M03/M07 A3037 RMK A01 T10291066  RH  076%=      5-min Rain = 0
KDMS 100450Z 26007KT M03/M06 A3037 RMK A01 T10271059  RH  079%=      5-min Rain = 0
KDMS 100455Z 26006KT M03/M06 A3037 RMK A01 T10281059  RH  080%=      5-min Rain = 0
KDMS 100500Z 26006KT M03/M06 A3037 RMK A01 T10331059  RH  082%=      5-min Rain = 0
KDMS 100505Z 26005KT M03/M06 A3037 RMK A01 T10331058  RH  083%=      5-min Rain = 0
KDMS 100510Z 26005KT M03/M06 A3037 RMK A01 T10321058  RH  082%=      5-min Rain = 0
KDMS 100515Z 25004KT M03/M06 A3037 RMK A01 T10321057  RH  083%=      5-min Rain = 0
KDMS 100520Z 27004KT M03/M06 A3037 RMK A01 T10341059  RH  083%=      5-min Rain = 0
KDMS 100525Z 28005KT M04/M06 A3037 RMK A01 T10411062  RH  085%=      5-min Rain = 0
KDMS 100530Z 29005KT M04/M06 A3037 RMK A01 T10431061  RH  087%=      5-min Rain = 0
KDMS 100535Z 29006KT M04/M06 A3037 RMK A01 T10431061  RH  087%=      5-min Rain = 0
KDMS 100540Z 29005KT M05/M06 A3037 RMK A01 T10461064  RH  087%=      5-min Rain = 0
KDMS 100545Z 30007KT M05/M06 A3037 RMK A01 T10471064  RH  088%=      5-min Rain = 0
KDMS 100550Z 30009KT M05/M06 A3037 RMK A01 T10451061  RH  089%=      5-min Rain = 0
KDMS 100555Z 30009KT M04/M06 A3037 RMK A01 T10441061  RH  088%=      5-min Rain = 0

Page generated in 0.0165 seconds.